Wingham, Canada
Current Conditions -  °F | °C
As of 9:00 PM on Monday 22 Dec 2014 (Local Time) from CYKF Reporting Station
Haze Haze  
Wind Chill: 21°   Ceiling: Unl
Heat Index: 28°   Visibility: 4mi
Dew Point: 27°   Wind: 7mph
Humidity: 93%   Direction: 80°E
Pressure: 30"   Gusts: NA
Location:  43.88°N, 81.3°W
Report Text: CYKF 230200Z AUTO 08006KT 4SM BR CLR M02/M03 A3000 RMK SLP174
Loading
Personal Weather Stations






























Interactive Weather Map New forecast layout! Learn more

10-Day Weather Forecast

Advertisements
Track Severe Weather on mobile